createdAt,value
2022-08-27T00:01:23.692Z,100795.06
2022-08-27T00:03:51.374Z,100800.13
2022-08-27T00:06:19.772Z,100797.16
2022-08-27T00:08:48.552Z,100779.28
2022-08-27T00:11:17.363Z,100795.06
2022-08-27T00:13:45.642Z,100791.38
2022-08-27T00:16:15.291Z,100787.00
2022-08-27T00:18:44.393Z,100785.84
2022-08-27T00:21:15.705Z,100787.00
2022-08-27T00:23:43.440Z,100784.91
2022-08-27T00:26:11.374Z,100790.66
2022-08-27T00:28:39.839Z,100786.75
2022-08-27T00:31:07.747Z,100779.81
2022-08-27T00:33:40.261Z,100784.41
2022-08-27T00:36:08.366Z,100782.06
2022-08-27T00:38:37.380Z,100776.53
2022-08-27T00:41:06.296Z,100778.69
2022-08-27T00:43:45.202Z,100779.28
2022-08-27T00:46:15.933Z,100772.34
2022-08-27T00:48:46.030Z,100779.13
2022-08-27T00:51:13.842Z,100780.59
2022-08-27T00:53:41.485Z,100777.22
2022-08-27T00:56:10.859Z,100783.44
2022-08-27T00:58:40.069Z,100783.97
2022-08-27T01:01:09.062Z,100786.84
2022-08-27T01:03:37.908Z,100786.84
2022-08-27T01:06:10.910Z,100784.28
2022-08-27T01:08:45.526Z,100784.44
2022-08-27T01:11:13.323Z,100779.94
2022-08-27T01:14:00.210Z,100781.09
2022-08-27T01:16:31.812Z,100776.94
2022-08-27T01:19:00.831Z,100783.63
2022-08-27T01:21:32.676Z,100781.66
2022-08-27T01:24:03.770Z,100784.28
2022-08-27T01:26:33.091Z,100784.75
2022-08-27T01:29:00.707Z,100790.19
2022-08-27T01:31:29.253Z,100781.75
2022-08-27T01:33:58.556Z,100779.72
2022-08-27T01:36:26.234Z,100788.44
2022-08-27T01:38:53.944Z,100786.25
2022-08-27T01:41:22.457Z,100786.59
2022-08-27T01:43:52.267Z,100784.63
2022-08-27T01:46:21.895Z,100786.72
2022-08-27T01:48:49.692Z,100789.00
2022-08-27T01:51:17.610Z,100790.28
2022-08-27T01:53:45.125Z,100784.19
2022-08-27T01:56:12.938Z,100790.06
2022-08-27T01:58:40.616Z,100789.97
2022-08-27T02:01:10.878Z,100787.28
2022-08-27T02:03:38.837Z,100786.13
2022-08-27T02:06:07.965Z,100787.75
2022-08-27T02:08:35.982Z,100780.94
2022-08-27T02:11:03.733Z,100775.78
2022-08-27T02:13:31.248Z,100777.38
2022-08-27T02:15:58.831Z,100779.69
2022-08-27T02:18:27.791Z,100777.75
2022-08-27T02:20:55.372Z,100777.84
2022-08-27T02:23:22.955Z,100779.38
2022-08-27T02:25:50.995Z,100767.25
2022-08-27T02:28:18.567Z,100760.09
2022-08-27T02:30:46.172Z,100760.09
2022-08-27T02:33:14.099Z,100769.22
2022-08-27T02:35:44.331Z,100773.13
2022-08-27T02:38:12.788Z,100775.06
2022-08-27T02:40:40.540Z,100772.91
2022-08-27T02:43:08.850Z,100774.41
2022-08-27T02:45:37.440Z,100760.47
2022-08-27T02:48:05.748Z,100765.75
2022-08-27T02:50:33.661Z,100763.34
2022-08-27T02:53:03.170Z,100764.00
2022-08-27T02:55:31.018Z,100762.41
2022-08-27T02:57:58.654Z,100768.75
2022-08-27T03:00:29.008Z,100772.66
2022-08-27T03:02:56.883Z,100769.53
2022-08-27T03:05:24.845Z,100763.69
2022-08-27T03:07:52.435Z,100766.44
2022-08-27T03:10:21.834Z,100762.63
2022-08-27T03:12:49.570Z,100758.00
2022-08-27T03:15:18.467Z,100757.34
2022-08-27T03:18:03.413Z,100756.88
2022-08-27T03:20:30.990Z,100758.00
2022-08-27T03:22:58.531Z,100757.34
2022-08-27T03:25:27.824Z,100759.75
2022-08-27T03:27:55.441Z,100752.94
2022-08-27T03:30:23.438Z,100760.22
2022-08-27T03:32:51.556Z,100767.94
2022-08-27T03:35:19.784Z,100764.00
2022-08-27T03:37:47.581Z,100775.78
2022-08-27T03:40:16.353Z,100774.41
2022-08-27T03:42:45.397Z,100770.94
2022-08-27T03:45:13.305Z,100771.63
2022-08-27T03:47:41.208Z,100771.75
2022-08-27T03:50:11.023Z,100773.38
2022-08-27T03:52:38.630Z,100771.28
2022-08-27T03:55:07.514Z,100774.75
2022-08-27T03:57:35.158Z,100761.97
2022-08-27T04:00:04.963Z,100774.75
2022-08-27T04:02:32.587Z,100768.31
2022-08-27T04:05:00.186Z,100771.41
2022-08-27T04:07:27.804Z,100766.81
2022-08-27T04:09:55.407Z,100763.59
2022-08-27T04:12:23.021Z,100772.56
2022-08-27T04:14:50.602Z,100778.66
2022-08-27T04:17:19.542Z,100777.38
2022-08-27T04:19:47.052Z,100774.84
2022-08-27T04:22:14.966Z,100784.75
2022-08-27T04:24:42.919Z,100776.47
2022-08-27T04:27:11.082Z,100779.00
2022-08-27T04:29:38.694Z,100774.50
2022-08-27T04:32:07.504Z,100773.25
2022-08-27T04:34:36.924Z,100777.84
2022-08-27T04:37:05.427Z,100780.38
2022-08-27T04:39:33.642Z,100781.31
2022-08-27T04:42:01.656Z,100775.66
2022-08-27T04:44:30.556Z,100782.00
2022-08-27T04:46:58.870Z,100777.63
2022-08-27T04:49:27.297Z,100782.22
2022-08-27T04:51:56.503Z,100781.31
2022-08-27T04:54:32.306Z,100775.66
2022-08-27T04:57:00.855Z,100777.75
2022-08-27T04:59:28.399Z,100790.75
2022-08-27T05:01:55.990Z,100783.97
2022-08-27T05:04:23.672Z,100782.56
2022-08-27T05:06:54.878Z,100793.56
2022-08-27T05:09:24.574Z,100796.31
2022-08-27T05:11:55.558Z,100796.78
2022-08-27T05:14:24.090Z,100791.03
2022-08-27T05:16:51.672Z,100796.78
2022-08-27T05:19:19.287Z,100785.84
2022-08-27T05:21:48.222Z,100788.97
2022-08-27T05:24:16.544Z,100787.34
2022-08-27T05:26:45.843Z,100784.22
2022-08-27T05:29:14.161Z,100790.06
2022-08-27T05:31:42.275Z,100795.44
2022-08-27T05:34:10.487Z,100796.41
2022-08-27T05:36:48.092Z,100796.53
2022-08-27T05:39:16.999Z,100792.72
2022-08-27T05:41:46.017Z,100790.66
2022-08-27T05:47:03.431Z,100792.78
2022-08-27T05:49:31.145Z,100792.19
2022-08-27T05:51:58.753Z,100799.22
2022-08-27T05:54:41.682Z,100798.31
2022-08-27T05:57:10.611Z,100801.56
2022-08-27T05:59:55.995Z,100805.47
2022-08-27T06:02:23.961Z,100794.97
2022-08-27T06:04:51.942Z,100807.34
2022-08-27T06:07:19.729Z,100812.19
2022-08-27T06:09:47.438Z,100802.13
2022-08-27T06:12:16.449Z,100801.53
2022-08-27T06:14:44.025Z,100803.28
2022-08-27T06:17:11.577Z,100796.50
2022-08-27T06:19:39.184Z,100803.25
2022-08-27T06:22:10.001Z,100806.13
2022-08-27T06:24:39.215Z,100808.91
2022-08-27T06:27:07.014Z,100811.06
2022-08-27T06:29:35.958Z,100808.63
2022-08-27T06:32:03.613Z,100807.00
2022-08-27T06:34:31.162Z,100816.72
2022-08-27T06:36:58.775Z,100816.00
2022-08-27T06:39:27.076Z,100820.16
2022-08-27T06:41:55.465Z,100810.91
2022-08-27T06:44:24.321Z,100807.88
2022-08-27T06:46:53.303Z,100819.97
2022-08-27T06:49:20.915Z,100812.34
2022-08-27T06:51:49.031Z,100823.31
2022-08-27T06:54:17.070Z,100820.63
2022-08-27T06:56:46.948Z,100817.97
2022-08-27T06:59:15.362Z,100812.41
2022-08-27T07:01:43.905Z,100814.97
2022-08-27T07:04:14.008Z,100815.06
2022-08-27T07:06:41.892Z,100818.72
2022-08-27T07:09:10.038Z,100818.38
2022-08-27T07:11:38.226Z,100818.72
2022-08-27T07:14:07.100Z,100821.06
2022-08-27T07:16:34.867Z,100821.69
2022-08-27T07:19:05.066Z,100817.97
2022-08-27T07:21:34.857Z,100817.34
2022-08-27T07:24:09.222Z,100816.34
2022-08-27T07:26:39.392Z,100810.72
2022-08-27T07:32:13.115Z,100809.19
2022-08-27T07:34:40.714Z,100813.44
2022-08-27T07:37:09.535Z,100815.22
2022-08-27T07:39:37.140Z,100820.38
2022-08-27T07:42:22.566Z,100811.47
2022-08-27T07:44:50.118Z,100811.59
2022-08-27T07:47:18.474Z,100815.22
2022-08-27T07:49:46.084Z,100814.75
2022-08-27T07:52:17.697Z,100819.66
2022-08-27T07:54:45.602Z,100838.34
2022-08-27T07:57:13.144Z,100824.22
2022-08-27T07:59:40.727Z,100828.25
2022-08-27T08:02:08.336Z,100837.25
2022-08-27T08:04:35.945Z,100839.97
2022-08-27T08:07:03.564Z,100830.69
2022-08-27T08:09:33.592Z,100838.28
2022-08-27T08:12:01.121Z,100834.31
2022-08-27T08:14:30.402Z,100834.38
2022-08-27T08:16:59.814Z,100832.56
2022-08-27T08:19:27.516Z,100837.25
2022-08-27T08:22:00.317Z,100835.06
2022-08-27T08:24:29.032Z,100841.22
2022-08-27T08:26:57.863Z,100840.63
2022-08-27T08:29:25.667Z,100843.38
2022-08-27T08:31:53.267Z,100845.19
2022-08-27T08:34:21.485Z,100845.75
2022-08-27T08:36:53.958Z,100848.53
2022-08-27T08:39:22.637Z,100849.41
2022-08-27T08:41:51.772Z,100848.78
2022-08-27T08:44:32.695Z,100848.91
2022-08-27T08:47:03.350Z,100847.16
2022-08-27T08:49:35.155Z,100859.53
2022-08-27T08:52:09.058Z,100851.69
2022-08-27T08:54:38.563Z,100848.06
2022-08-27T08:57:08.055Z,100848.28
2022-08-27T08:59:38.793Z,100851.78
2022-08-27T09:02:11.281Z,100846.41
2022-08-27T09:04:41.932Z,100855.88
2022-08-27T09:07:14.061Z,100858.72
2022-08-27T09:09:54.662Z,100844.09
2022-08-27T09:12:25.077Z,100847.28
2022-08-27T09:14:56.248Z,100849.22
2022-08-27T09:17:24.777Z,100856.84
2022-08-27T09:19:53.458Z,100849.22
2022-08-27T09:22:25.003Z,100846.09
2022-08-27T09:24:57.172Z,100850.97
2022-08-27T09:27:25.126Z,100852.78
2022-08-27T09:29:55.119Z,100852.06
2022-08-27T09:32:24.828Z,100849.44
2022-08-27T09:34:52.842Z,100857.41
2022-08-27T09:37:21.866Z,100860.84
2022-08-27T09:39:51.273Z,100858.63
2022-08-27T09:42:28.174Z,100862.69
2022-08-27T09:44:57.484Z,100858.19
2022-08-27T09:47:25.415Z,100859.09
2022-08-27T09:50:05.915Z,100862.03
2022-08-27T09:52:37.834Z,100860.13
2022-08-27T09:55:06.330Z,100857.03
2022-08-27T09:58:12.663Z,100855.63
2022-08-27T10:00:42.287Z,100849.06
2022-08-27T10:03:10.518Z,100848.50
2022-08-27T10:05:39.585Z,100843.63
2022-08-27T10:08:12.278Z,100847.13
2022-08-27T10:10:44.202Z,100842.94
2022-08-27T10:13:15.421Z,100842.78
2022-08-27T10:15:49.507Z,100845.09
2022-08-27T10:18:22.334Z,100849.97
2022-08-27T10:20:57.149Z,100842.31
2022-08-27T10:23:28.569Z,100851.91
2022-08-27T10:26:00.275Z,100846.78
2022-08-27T10:28:36.682Z,100852.06
2022-08-27T10:31:13.939Z,100849.38
2022-08-27T10:33:51.801Z,100844.66
2022-08-27T10:36:26.756Z,100846.94
2022-08-27T10:38:59.488Z,100844.38
2022-08-27T10:41:29.187Z,100840.28
2022-08-27T10:44:04.146Z,100832.22
2022-08-27T10:46:49.950Z,100837.78
2022-08-27T10:49:23.703Z,100846.50
2022-08-27T10:51:55.983Z,100840.66
2022-08-27T10:54:26.457Z,100839.22
2022-08-27T10:57:14.391Z,100842.41
2022-08-27T10:59:49.215Z,100841.84
2022-08-27T11:02:24.410Z,100834.03
2022-08-27T11:04:54.542Z,100824.59
2022-08-27T11:07:24.548Z,100826.63
2022-08-27T11:09:57.053Z,100830.72
2022-08-27T11:12:27.473Z,100828.25
2022-08-27T11:14:57.486Z,100830.72
2022-08-27T11:17:32.017Z,100830.72
2022-08-27T11:20:02.512Z,100828.75
2022-08-27T11:22:34.519Z,100831.88
2022-08-27T11:25:07.132Z,100828.25
2022-08-27T11:27:35.638Z,100835.69
2022-08-27T11:30:06.365Z,100828.66
2022-08-27T11:32:39.184Z,100840.19
2022-08-27T11:35:10.468Z,100840.50
2022-08-27T11:38:03.084Z,100836.00
2022-08-27T11:40:38.160Z,100833.28
2022-08-27T11:43:07.303Z,100826.19
2022-08-27T11:45:38.525Z,100839.06
2022-08-27T11:48:23.316Z,100834.28
2022-08-27T11:50:54.926Z,100835.91
2022-08-27T11:53:28.459Z,100841.47
2022-08-27T11:55:56.566Z,100837.00
2022-08-27T11:58:26.090Z,100845.44
2022-08-27T12:00:54.380Z,100837.47
2022-08-27T12:03:28.356Z,100828.66
2022-08-27T12:06:14.486Z,100828.59
2022-08-27T12:08:42.014Z,100833.25
2022-08-27T12:11:15.322Z,100834.38
2022-08-27T12:13:45.750Z,100838.59
2022-08-27T12:16:23.609Z,100836.94
2022-08-27T12:18:58.743Z,100837.81
2022-08-27T12:21:31.671Z,100836.25
2022-08-27T12:24:10.588Z,100839.63
2022-08-27T12:26:39.815Z,100841.69
2022-08-27T12:29:34.548Z,100832.53
2022-08-27T12:32:12.648Z,100834.63
2022-08-27T12:34:59.121Z,100829.47
2022-08-27T12:37:28.949Z,100827.47
2022-08-27T12:39:59.717Z,100831.06
2022-08-27T12:42:27.298Z,100830.28
2022-08-27T12:44:55.688Z,100827.47
2022-08-27T12:47:23.691Z,100829.06
2022-08-27T12:49:56.403Z,100827.44
2022-08-27T12:52:37.828Z,100820.63
2022-08-27T12:55:11.421Z,100824.63
2022-08-27T12:57:43.143Z,100822.84
2022-08-27T13:00:15.449Z,100829.50
2022-08-27T13:02:56.571Z,100814.16
2022-08-27T13:05:25.563Z,100822.41
2022-08-27T13:07:54.475Z,100807.19
2022-08-27T13:10:25.421Z,100807.53
2022-08-27T13:13:01.996Z,100804.78
2022-08-27T13:15:29.610Z,100800.47
2022-08-27T13:17:57.319Z,100803.38
2022-08-27T13:20:32.440Z,100792.06
2022-08-27T13:23:00.234Z,100796.00
2022-08-27T13:25:29.651Z,100797.41
2022-08-27T13:28:00.105Z,100806.06
2022-08-27T13:30:35.833Z,100800.56
2022-08-27T13:33:05.160Z,100803.78
2022-08-27T13:35:34.595Z,100809.44
2022-08-27T13:38:03.617Z,100802.47
2022-08-27T13:40:32.764Z,100797.63
2022-08-27T13:43:04.742Z,100803.13
2022-08-27T13:45:37.076Z,100800.31
2022-08-27T13:48:05.867Z,100795.50
2022-08-27T13:50:36.060Z,100801.09
2022-08-27T13:53:23.560Z,100798.13
2022-08-27T13:55:52.050Z,100797.81
2022-08-27T13:58:22.103Z,100796.31
2022-08-27T14:00:49.653Z,100795.53
2022-08-27T14:03:27.819Z,100801.16
2022-08-27T14:05:57.258Z,100793.59
2022-08-27T14:08:29.258Z,100796.41
2022-08-27T14:11:00.319Z,100807.47
2022-08-27T14:13:28.765Z,100800.78
2022-08-27T14:15:57.223Z,100800.44
2022-08-27T14:18:42.562Z,100799.84
2022-08-27T14:21:15.795Z,100787.03
2022-08-27T14:23:43.347Z,100802.25
2022-08-27T14:26:11.018Z,100801.03
2022-08-27T14:28:38.629Z,100805.75
2022-08-27T14:31:06.301Z,100798.66
2022-08-27T14:33:33.849Z,100800.28
2022-08-27T14:36:02.008Z,100803.38
2022-08-27T14:38:35.088Z,100798.34
2022-08-27T14:41:02.685Z,100797.25
2022-08-27T14:43:35.503Z,100803.69
2022-08-27T14:46:04.041Z,100801.69
2022-08-27T14:48:33.521Z,100792.84
2022-08-27T14:51:03.427Z,100792.88
2022-08-27T14:53:30.950Z,100796.13
2022-08-27T14:56:01.759Z,100799.81
2022-08-27T14:58:29.366Z,100795.00
2022-08-27T15:00:57.683Z,100795.53
2022-08-27T15:03:26.094Z,100799.56
2022-08-27T15:05:55.267Z,100786.81
2022-08-27T15:08:27.438Z,100792.41
2022-08-27T15:10:57.120Z,100800.16
2022-08-27T15:13:26.129Z,100796.69
2022-08-27T15:15:53.796Z,100791.88
2022-08-27T15:18:21.470Z,100791.16
2022-08-27T15:20:49.357Z,100792.34
2022-08-27T15:23:17.890Z,100795.19
2022-08-27T15:25:46.779Z,100800.06
2022-08-27T15:28:14.415Z,100794.53
2022-08-27T15:30:43.435Z,100796.06
2022-08-27T15:33:11.012Z,100796.41
2022-08-27T15:35:38.670Z,100794.81
2022-08-27T15:38:06.233Z,100799.16
2022-08-27T15:40:35.645Z,100797.41
2022-08-27T15:43:05.560Z,100796.97
2022-08-27T15:45:33.574Z,100798.56
2022-08-27T15:48:08.577Z,100805.19
2022-08-27T15:50:36.187Z,100814.97
2022-08-27T15:53:05.397Z,100810.06
2022-08-27T15:55:33.716Z,100815.03
2022-08-27T15:58:01.433Z,100808.09
2022-08-27T16:00:42.715Z,100816.50
2022-08-27T16:03:13.533Z,100813.34
2022-08-27T16:05:42.466Z,100806.19
2022-08-27T16:08:10.237Z,100810.88
2022-08-27T16:10:37.886Z,100815.19
2022-08-27T16:13:05.618Z,100812.09
2022-08-27T16:15:34.217Z,100818.94
2022-08-27T16:18:03.808Z,100814.34
2022-08-27T16:20:32.733Z,100813.66
2022-08-27T16:23:00.234Z,100807.59
2022-08-27T16:25:27.785Z,100811.88
2022-08-27T16:27:55.434Z,100814.09
2022-08-27T16:30:50.126Z,100805.44
2022-08-27T16:36:35.397Z,100811.00
2022-08-27T16:39:03.004Z,100814.75
2022-08-27T16:41:31.426Z,100809.19
2022-08-27T16:44:00.549Z,100800.38
2022-08-27T16:46:28.111Z,100798.78
2022-08-27T16:49:14.335Z,100805.47
2022-08-27T16:51:43.790Z,100803.47
2022-08-27T16:54:12.471Z,100809.38
2022-08-27T16:56:40.384Z,100806.88
2022-08-27T16:59:09.291Z,100807.25
2022-08-27T17:01:37.657Z,100796.25
2022-08-27T17:04:36.745Z,100807.19
2022-08-27T17:07:25.995Z,100799.00
2022-08-27T17:10:05.727Z,100807.72
2022-08-27T17:12:33.728Z,100808.53
2022-08-27T17:15:01.464Z,100811.03
2022-08-27T17:17:50.125Z,100801.88
2022-08-27T17:20:17.821Z,100810.59
2022-08-27T17:22:46.703Z,100800.97
2022-08-27T17:25:14.290Z,100803.31
2022-08-27T17:27:42.024Z,100804.94
2022-08-27T17:30:10.464Z,100810.66
2022-08-27T17:32:39.786Z,100814.16
2022-08-27T17:35:08.166Z,100806.09
2022-08-27T17:37:35.869Z,100822.69
2022-08-27T17:40:05.810Z,100818.50
2022-08-27T17:42:33.491Z,100812.13
2022-08-27T17:45:01.104Z,100822.28
2022-08-27T17:47:29.826Z,100818.25
2022-08-27T17:49:58.424Z,100821.03
2022-08-27T17:52:25.997Z,100823.59
2022-08-27T17:54:54.443Z,100822.28
2022-08-27T17:57:24.759Z,100839.78
2022-08-27T17:59:53.371Z,100829.66
2022-08-27T18:02:22.655Z,100828.84
2022-08-27T18:04:50.817Z,100833.44
2022-08-27T18:07:19.196Z,100838.84
2022-08-27T18:09:46.814Z,100843.59
2022-08-27T18:12:17.628Z,100841.91
2022-08-27T18:14:49.630Z,100847.56
2022-08-27T18:17:17.190Z,100844.41
2022-08-27T18:19:45.801Z,100841.19
2022-08-27T18:22:13.520Z,100845.41
2022-08-27T18:24:41.025Z,100850.88
2022-08-27T18:27:08.640Z,100850.53
2022-08-27T18:29:36.195Z,100848.75
2022-08-27T18:32:05.307Z,100853.31
2022-08-27T18:34:32.876Z,100855.91
2022-08-27T18:37:00.343Z,100849.00
2022-08-27T18:39:29.042Z,100848.47
2022-08-27T18:41:56.554Z,100856.38
2022-08-27T18:44:24.161Z,100853.31
2022-08-27T18:46:51.719Z,100857.97
2022-08-27T18:49:22.191Z,100858.22
2022-08-27T18:51:52.636Z,100852.84
2022-08-27T18:54:20.555Z,100855.19
2022-08-27T18:56:48.212Z,100860.75
2022-08-27T18:59:16.233Z,100865.41
2022-08-27T19:01:44.183Z,100864.50
2022-08-27T19:04:12.858Z,100864.03
2022-08-27T19:06:41.760Z,100863.88
2022-08-27T19:09:09.708Z,100864.34
2022-08-27T19:11:37.685Z,100872.38
2022-08-27T19:14:05.273Z,100872.13
2022-08-27T19:16:38.817Z,100874.34
2022-08-27T19:19:13.721Z,100872.22
2022-08-27T19:21:42.969Z,100871.06
2022-08-27T19:24:40.169Z,100876.63
2022-08-27T19:27:08.354Z,100872.94
2022-08-27T19:29:35.969Z,100883.69
2022-08-27T19:32:03.625Z,100886.28
2022-08-27T19:34:31.215Z,100885.38
2022-08-27T19:37:00.711Z,100886.78
2022-08-27T19:39:28.409Z,100888.75
2022-08-27T19:41:56.812Z,100886.44
2022-08-27T19:44:24.506Z,100894.75
2022-08-27T19:46:55.741Z,100892.44
2022-08-27T19:49:23.353Z,100897.34
2022-08-27T19:51:50.844Z,100891.31
2022-08-27T19:54:19.890Z,100894.66
2022-08-27T19:56:47.571Z,100896.19
2022-08-27T19:59:21.202Z,100895.00
2022-08-27T20:01:49.207Z,100897.78
2022-08-27T20:04:16.868Z,100891.53
2022-08-27T20:06:44.429Z,100894.09
2022-08-27T20:09:15.943Z,100887.38
2022-08-27T20:11:46.060Z,100888.94
2022-08-27T20:14:13.673Z,100893.94
2022-08-27T20:16:41.328Z,100892.78
2022-08-27T20:19:09.348Z,100882.94
2022-08-27T20:21:36.897Z,100890.44
2022-08-27T20:24:04.714Z,100887.22
2022-08-27T20:26:33.315Z,100884.16
2022-08-27T20:29:02.761Z,100888.38
2022-08-27T20:31:30.333Z,100888.63
2022-08-27T20:33:58.054Z,100898.38
2022-08-27T20:36:28.160Z,100895.59
2022-08-27T20:38:56.069Z,100900.22
2022-08-27T20:41:23.821Z,100897.34
2022-08-27T20:43:51.489Z,100895.84
2022-08-27T20:46:21.811Z,100903.25
2022-08-27T20:48:49.615Z,100904.03
2022-08-27T20:51:17.224Z,100904.88
2022-08-27T20:53:44.770Z,100916.69
2022-08-27T20:56:12.345Z,100921.06
2022-08-27T20:59:08.769Z,100926.47
2022-08-27T21:01:38.723Z,100919.00
2022-08-27T21:04:06.386Z,100928.97
2022-08-27T21:06:33.990Z,100920.41
2022-08-27T21:09:01.533Z,100932.44
2022-08-27T21:11:29.118Z,100936.00
2022-08-27T21:13:56.904Z,100938.19
2022-08-27T21:16:25.030Z,100934.75
2022-08-27T21:18:55.554Z,100938.91
2022-08-27T21:21:23.255Z,100944.94
2022-08-27T21:23:50.956Z,100940.66
2022-08-27T21:26:20.088Z,100947.00
2022-08-27T21:28:47.664Z,100943.34
2022-08-27T21:31:15.138Z,100942.19
2022-08-27T21:33:42.708Z,100939.78
2022-08-27T21:36:12.497Z,100951.78
2022-08-27T21:38:40.131Z,100950.16
2022-08-27T21:41:07.781Z,100952.81
2022-08-27T21:43:35.354Z,100961.41
2022-08-27T21:46:02.909Z,100959.31
2022-08-27T21:48:30.674Z,100964.28
2022-08-27T21:50:58.292Z,100960.69
2022-08-27T21:53:27.178Z,100963.72
2022-08-27T21:55:54.949Z,100968.66
2022-08-27T21:58:26.361Z,100971.31
2022-08-27T22:00:54.287Z,100973.59
2022-08-27T22:03:22.763Z,100968.31
2022-08-27T22:05:50.350Z,100965.25
2022-08-27T22:08:19.277Z,100977.25
2022-08-27T22:10:49.483Z,100979.56
2022-08-27T22:13:17.694Z,100978.19
2022-08-27T22:15:45.305Z,100974.25
2022-08-27T22:18:13.103Z,100986.84
2022-08-27T22:20:41.513Z,100981.84
2022-08-27T22:23:10.267Z,100985.78
2022-08-27T22:25:38.135Z,100983.94
2022-08-27T22:28:07.461Z,100985.03
2022-08-27T22:30:35.058Z,100980.44
2022-08-27T22:33:02.725Z,100983.47
2022-08-27T22:35:30.537Z,100978.25
2022-08-27T22:37:58.089Z,100982.19
2022-08-27T22:40:27.877Z,100982.56
2022-08-27T22:42:56.411Z,100983.19
2022-08-27T22:45:25.988Z,100976.44
2022-08-27T22:47:53.633Z,100974.09
2022-08-27T22:50:21.847Z,100977.19
2022-08-27T22:52:50.085Z,100974.13
2022-08-27T22:55:19.668Z,100974.13
2022-08-27T22:57:47.378Z,100981.66
2022-08-27T23:00:16.788Z,100991.66
2022-08-27T23:02:46.154Z,100984.50
2022-08-27T23:05:13.853Z,100993.13
2022-08-27T23:07:42.120Z,100984.97
2022-08-27T23:10:11.161Z,100992.34
2022-08-27T23:12:39.058Z,100991.78
2022-08-27T23:15:08.752Z,100996.19
2022-08-27T23:17:36.781Z,100989.34
2022-08-27T23:20:07.977Z,100993.25
2022-08-27T23:22:35.631Z,100998.00
2022-08-27T23:25:20.801Z,101000.97
2022-08-27T23:27:48.508Z,101002.59
2022-08-27T23:30:17.120Z,100992.88
2022-08-27T23:32:48.857Z,100992.06
2022-08-27T23:35:22.946Z,100993.91
2022-08-27T23:37:50.517Z,100992.38
2022-08-27T23:40:18.766Z,100997.16
2022-08-27T23:42:46.690Z,100993.91
2022-08-27T23:45:17.787Z,100998.81
2022-08-27T23:47:45.394Z,101007.41
2022-08-27T23:50:13.283Z,100996.97
2022-08-27T23:52:42.220Z,100998.22
2022-08-27T23:55:11.030Z,100999.69
2022-08-27T23:57:39.759Z,101000.63
